sensor_id;sensor_type;location;lat;lon;timestamp;pressure;altitude;pressure_sealevel;temperature;humidity
72024;BME280;59889;50.700;5.440;2023-03-20T00:01:31;100467.60;;;22.02;35.04
72024;BME280;59889;50.700;5.440;2023-03-20T00:03:56;100472.57;;;22.35;34.90
72024;BME280;59889;50.700;5.440;2023-03-20T00:06:22;100478.87;;;21.88;34.93
72024;BME280;59889;50.700;5.440;2023-03-20T00:08:48;100483.01;;;22.02;34.75
72024;BME280;59889;50.700;5.440;2023-03-20T00:11:24;100488.10;;;22.22;34.82
72024;BME280;59889;50.700;5.440;2023-03-20T00:13:35;100493.12;;;22.30;34.73
72024;BME280;59889;50.700;5.440;2023-03-20T00:16:01;100496.93;;;22.26;34.76
72024;BME280;59889;50.700;5.440;2023-03-20T00:18:26;100500.30;;;22.13;34.90
72024;BME280;59889;50.700;5.440;2023-03-20T00:20:51;100502.12;;;21.88;34.95
72024;BME280;59889;50.700;5.440;2023-03-20T00:23:16;100503.42;;;22.22;34.77
72024;BME280;59889;50.700;5.440;2023-03-20T00:25:42;100509.58;;;22.18;34.84
72024;BME280;59889;50.700;5.440;2023-03-20T00:30:31;100510.97;;;22.22;34.81
72024;BME280;59889;50.700;5.440;2023-03-20T00:32:57;100507.51;;;22.43;34.83
72024;BME280;59889;50.700;5.440;2023-03-20T00:35:24;100502.97;;;21.94;34.86
72024;BME280;59889;50.700;5.440;2023-03-20T00:37:46;100500.27;;;22.17;34.86
72024;BME280;59889;50.700;5.440;2023-03-20T00:40:12;100496.89;;;22.18;34.86
72024;BME280;59889;50.700;5.440;2023-03-20T00:42:36;100497.04;;;21.83;34.97
72024;BME280;59889;50.700;5.440;2023-03-20T00:45:02;100499.85;;;21.88;34.90
72024;BME280;59889;50.700;5.440;2023-03-20T00:47:27;100491.32;;;22.22;34.79
72024;BME280;59889;50.700;5.440;2023-03-20T00:49:53;100487.77;;;21.90;34.90
72024;BME280;59889;50.700;5.440;2023-03-20T00:52:18;100486.33;;;22.21;34.82
72024;BME280;59889;50.700;5.440;2023-03-20T00:54:42;100477.09;;;21.85;34.95
72024;BME280;59889;50.700;5.440;2023-03-20T00:57:11;100474.95;;;21.90;34.91
72024;BME280;59889;50.700;5.440;2023-03-20T00:59:36;100469.22;;;21.96;34.82
72024;BME280;59889;50.700;5.440;2023-03-20T01:01:58;100465.14;;;21.92;34.87
72024;BME280;59889;50.700;5.440;2023-03-20T01:04:23;100464.72;;;21.95;34.83
72024;BME280;59889;50.700;5.440;2023-03-20T01:06:48;100455.13;;;22.20;34.82
72024;BME280;59889;50.700;5.440;2023-03-20T01:09:13;100449.54;;;21.98;35.07
72024;BME280;59889;50.700;5.440;2023-03-20T01:11:38;100453.93;;;22.13;34.89
72024;BME280;59889;50.700;5.440;2023-03-20T01:14:03;100448.36;;;22.13;34.88
72024;BME280;59889;50.700;5.440;2023-03-20T01:16:28;100445.29;;;21.99;35.07
72024;BME280;59889;50.700;5.440;2023-03-20T01:18:53;100449.82;;;21.90;34.89
72024;BME280;59889;50.700;5.440;2023-03-20T01:21:19;100450.04;;;21.76;35.08
72024;BME280;59889;50.700;5.440;2023-03-20T01:23:43;100450.90;;;21.93;34.85
72024;BME280;59889;50.700;5.440;2023-03-20T01:26:19;100454.81;;;22.08;34.94
72024;BME280;59889;50.700;5.440;2023-03-20T01:28:33;100463.61;;;22.18;34.83
72024;BME280;59889;50.700;5.440;2023-03-20T01:30:58;100472.90;;;22.21;34.81
72024;BME280;59889;50.700;5.440;2023-03-20T01:33:23;100481.12;;;21.94;34.85
72024;BME280;59889;50.700;5.440;2023-03-20T01:35:49;100486.37;;;21.78;35.03
72024;BME280;59889;50.700;5.440;2023-03-20T01:38:17;100485.99;;;21.86;34.94
72024;BME280;59889;50.700;5.440;2023-03-20T01:40:44;100472.95;;;22.00;35.05
72024;BME280;59889;50.700;5.440;2023-03-20T01:43:10;100460.02;;;21.81;34.98
72024;BME280;59889;50.700;5.440;2023-03-20T01:45:33;100453.98;;;21.73;35.08
72024;BME280;59889;50.700;5.440;2023-03-20T01:47:54;100442.56;;;22.09;34.94
72024;BME280;59889;50.700;5.440;2023-03-20T01:50:26;100447.01;;;21.78;35.01
72024;BME280;59889;50.700;5.440;2023-03-20T01:52:45;100447.39;;;21.98;35.05
72024;BME280;59889;50.700;5.440;2023-03-20T01:55:09;100441.85;;;22.08;34.93
72024;BME280;59889;50.700;5.440;2023-03-20T01:57:34;100445.57;;;22.00;35.04
72024;BME280;59889;50.700;5.440;2023-03-20T02:00:03;100439.93;;;21.74;35.08
72024;BME280;59889;50.700;5.440;2023-03-20T02:02:28;100436.04;;;22.02;35.00
72024;BME280;59889;50.700;5.440;2023-03-20T02:04:53;100442.18;;;21.86;34.91
72024;BME280;59889;50.700;5.440;2023-03-20T02:07:15;100446.84;;;22.24;34.69
72024;BME280;59889;50.700;5.440;2023-03-20T02:09:39;100444.98;;;21.82;34.97
72024;BME280;59889;50.700;5.440;2023-03-20T02:12:05;100432.16;;;21.76;35.01
72024;BME280;59889;50.700;5.440;2023-03-20T02:14:30;100434.50;;;21.95;35.11
72024;BME280;59889;50.700;5.440;2023-03-20T02:16:55;100424.89;;;21.81;35.01
72024;BME280;59889;50.700;5.440;2023-03-20T02:19:24;100402.39;;;22.21;35.03
72024;BME280;59889;50.700;5.440;2023-03-20T02:26:44;100409.35;;;22.04;34.95
72024;BME280;59889;50.700;5.440;2023-03-20T02:34:06;100445.47;;;22.06;34.90
72024;BME280;59889;50.700;5.440;2023-03-20T02:36:29;100450.29;;;21.88;34.87
72024;BME280;59889;50.700;5.440;2023-03-20T02:38:57;100450.82;;;22.07;34.93
72024;BME280;59889;50.700;5.440;2023-03-20T02:41:11;100453.79;;;21.89;34.87
72024;BME280;59889;50.700;5.440;2023-03-20T02:43:37;100465.34;;;21.80;34.95
72024;BME280;59889;50.700;5.440;2023-03-20T02:46:00;100468.60;;;22.02;35.01
72024;BME280;59889;50.700;5.440;2023-03-20T02:48:29;100463.06;;;21.80;34.98
72024;BME280;59889;50.700;5.440;2023-03-20T02:50:49;100465.56;;;22.01;35.01
72024;BME280;59889;50.700;5.440;2023-03-20T02:53:19;100461.42;;;21.93;35.11
72024;BME280;59889;50.700;5.440;2023-03-20T02:55:40;100475.46;;;21.94;35.11
72024;BME280;59889;50.700;5.440;2023-03-20T02:58:06;100471.70;;;21.98;35.07
72024;BME280;59889;50.700;5.440;2023-03-20T03:00:28;100473.18;;;22.05;34.97
72024;BME280;59889;50.700;5.440;2023-03-20T03:02:57;100469.69;;;21.98;35.07
72024;BME280;59889;50.700;5.440;2023-03-20T03:05:21;100461.20;;;21.78;35.04
72024;BME280;59889;50.700;5.440;2023-03-20T03:07:44;100463.43;;;21.76;34.99
72024;BME280;59889;50.700;5.440;2023-03-20T03:10:10;100454.43;;;21.75;35.06
72024;BME280;59889;50.700;5.440;2023-03-20T03:12:34;100453.43;;;21.94;35.07
72024;BME280;59889;50.700;5.440;2023-03-20T03:15:00;100443.35;;;21.74;35.06
72024;BME280;59889;50.700;5.440;2023-03-20T03:17:24;100448.93;;;21.96;35.05
72024;BME280;59889;50.700;5.440;2023-03-20T03:19:49;100446.85;;;22.04;34.97
72024;BME280;59889;50.700;5.440;2023-03-20T03:22:12;100451.50;;;21.80;35.30
72024;BME280;59889;50.700;5.440;2023-03-20T03:24:38;100441.50;;;22.29;34.99
72024;BME280;59889;50.700;5.440;2023-03-20T03:27:06;100441.20;;;21.92;35.18
72024;BME280;59889;50.700;5.440;2023-03-20T03:29:30;100427.31;;;21.96;35.10
72024;BME280;59889;50.700;5.440;2023-03-20T03:31:53;100423.21;;;21.99;35.07
72024;BME280;59889;50.700;5.440;2023-03-20T03:34:19;100421.95;;;21.97;35.07
72024;BME280;59889;50.700;5.440;2023-03-20T03:36:48;100424.85;;;21.91;35.16
72024;BME280;59889;50.700;5.440;2023-03-20T03:39:13;100410.25;;;21.78;35.04
72024;BME280;59889;50.700;5.440;2023-03-20T03:41:36;100410.67;;;21.75;35.36
72024;BME280;59889;50.700;5.440;2023-03-20T03:44:04;100422.62;;;21.97;35.08
72024;BME280;59889;50.700;5.440;2023-03-20T03:46:25;100423.39;;;21.88;35.19
72024;BME280;59889;50.700;5.440;2023-03-20T03:48:51;100425.50;;;21.55;35.32
72024;BME280;59889;50.700;5.440;2023-03-20T03:51:15;100418.53;;;22.02;35.29
72024;BME280;59889;50.700;5.440;2023-03-20T03:53:41;100425.63;;;21.97;35.07
72024;BME280;59889;50.700;5.440;2023-03-20T03:56:05;100423.31;;;21.79;35.02
72024;BME280;59889;50.700;5.440;2023-03-20T03:58:29;100422.44;;;21.71;35.11
72024;BME280;59889;50.700;5.440;2023-03-20T04:00:54;100407.36;;;21.92;35.14
72024;BME280;59889;50.700;5.440;2023-03-20T04:03:20;100400.80;;;21.66;35.12
72024;BME280;59889;50.700;5.440;2023-03-20T04:05:45;100395.31;;;21.71;35.09
72024;BME280;59889;50.700;5.440;2023-03-20T04:08:08;100403.31;;;22.28;34.99
72024;BME280;59889;50.700;5.440;2023-03-20T04:10:33;100409.91;;;21.66;35.15
72024;BME280;59889;50.700;5.440;2023-03-20T04:12:58;100423.37;;;21.72;35.08
72024;BME280;59889;50.700;5.440;2023-03-20T04:15:23;100425.30;;;21.68;35.12
72024;BME280;59889;50.700;5.440;2023-03-20T04:17:48;100426.17;;;22.06;34.95
72024;BME280;59889;50.700;5.440;2023-03-20T04:20:14;100430.91;;;21.90;35.14
72024;BME280;59889;50.700;5.440;2023-03-20T04:22:39;100427.56;;;21.93;35.08
72024;BME280;59889;50.700;5.440;2023-03-20T04:25:06;100433.99;;;21.88;35.13
72024;BME280;59889;50.700;5.440;2023-03-20T04:27:29;100438.68;;;21.53;35.26
72024;BME280;59889;50.700;5.440;2023-03-20T04:29:54;100443.63;;;21.93;35.07
72024;BME280;59889;50.700;5.440;2023-03-20T04:32:19;100433.79;;;21.66;35.08
72024;BME280;59889;50.700;5.440;2023-03-20T04:34:44;100425.73;;;21.89;35.10
72024;BME280;59889;50.700;5.440;2023-03-20T04:37:09;100417.78;;;21.91;35.07
72024;BME280;59889;50.700;5.440;2023-03-20T04:39:34;100408.04;;;21.70;35.00
72024;BME280;59889;50.700;5.440;2023-03-20T04:41:59;100408.22;;;21.78;35.35
72024;BME280;59889;50.700;5.440;2023-03-20T04:44:24;100419.38;;;21.64;36.08
72024;BME280;59889;50.700;5.440;2023-03-20T04:46:49;100431.62;;;21.30;36.17
72024;BME280;59889;50.700;5.440;2023-03-20T04:49:14;100444.02;;;21.77;35.62
72024;BME280;59889;50.700;5.440;2023-03-20T04:51:39;100441.96;;;21.55;35.43
72024;BME280;59889;50.700;5.440;2023-03-20T04:54:05;100439.47;;;21.54;35.21
72024;BME280;59889;50.700;5.440;2023-03-20T04:56:30;100432.97;;;21.22;35.37
72024;BME280;59889;50.700;5.440;2023-03-20T04:58:55;100427.11;;;21.36;35.00
72024;BME280;59889;50.700;5.440;2023-03-20T05:01:20;100426.45;;;21.72;34.90
72024;BME280;59889;50.700;5.440;2023-03-20T05:03:45;100427.39;;;21.47;35.45
72024;BME280;59889;50.700;5.440;2023-03-20T05:06:10;100430.96;;;21.57;35.87
72024;BME280;59889;50.700;5.440;2023-03-20T05:08:35;100424.28;;;21.16;36.16
72024;BME280;59889;50.700;5.440;2023-03-20T05:11:00;100426.87;;;21.53;36.02
72024;BME280;59889;50.700;5.440;2023-03-20T05:13:26;100426.59;;;21.68;35.90
72024;BME280;59889;50.700;5.440;2023-03-20T05:15:52;100427.04;;;21.59;36.10
72024;BME280;59889;50.700;5.440;2023-03-20T05:18:17;100423.30;;;21.39;36.53
72024;BME280;59889;50.700;5.440;2023-03-20T05:20:42;100427.08;;;21.44;36.53
72024;BME280;59889;50.700;5.440;2023-03-20T05:23:07;100428.43;;;21.49;36.54
72024;BME280;59889;50.700;5.440;2023-03-20T05:25:33;100427.15;;;21.19;36.61
72024;BME280;59889;50.700;5.440;2023-03-20T05:27:58;100419.83;;;21.49;36.53
72024;BME280;59889;50.700;5.440;2023-03-20T05:30:23;100426.78;;;21.52;36.54
72024;BME280;59889;50.700;5.440;2023-03-20T05:32:49;100419.01;;;20.98;36.97
72024;BME280;59889;50.700;5.440;2023-03-20T05:35:14;100425.07;;;21.30;36.57
72024;BME280;59889;50.700;5.440;2023-03-20T05:37:40;100422.54;;;21.39;36.76
72024;BME280;59889;50.700;5.440;2023-03-20T05:40:06;100416.38;;;21.11;36.83
72024;BME280;59889;50.700;5.440;2023-03-20T05:42:30;100414.09;;;21.28;36.58
72024;BME280;59889;50.700;5.440;2023-03-20T05:44:55;100407.05;;;21.50;36.58
72024;BME280;59889;50.700;5.440;2023-03-20T05:47:20;100406.41;;;21.46;36.63
72024;BME280;59889;50.700;5.440;2023-03-20T05:49:45;100404.49;;;21.52;36.56
72024;BME280;59889;50.700;5.440;2023-03-20T05:52:10;100411.26;;;21.50;36.55
72024;BME280;59889;50.700;5.440;2023-03-20T05:54:36;100410.85;;;21.50;36.52
72024;BME280;59889;50.700;5.440;2023-03-20T05:57:01;100413.67;;;21.47;36.66
72024;BME280;59889;50.700;5.440;2023-03-20T05:59:26;100411.03;;;21.51;36.61
72024;BME280;59889;50.700;5.440;2023-03-20T06:01:51;100406.08;;;21.42;36.72
72024;BME280;59889;50.700;5.440;2023-03-20T06:04:17;100409.97;;;21.22;36.66
72024;BME280;59889;50.700;5.440;2023-03-20T06:06:42;100412.06;;;21.20;36.66
72024;BME280;59889;50.700;5.440;2023-03-20T06:09:07;100418.09;;;21.40;36.72
72024;BME280;59889;50.700;5.440;2023-03-20T06:11:32;100414.80;;;21.47;36.58
72024;BME280;59889;50.700;5.440;2023-03-20T06:13:57;100418.06;;;21.45;36.60
72024;BME280;59889;50.700;5.440;2023-03-20T06:16:22;100420.21;;;21.37;36.70
72024;BME280;59889;50.700;5.440;2023-03-20T06:18:47;100420.03;;;21.45;36.59
72024;BME280;59889;50.700;5.440;2023-03-20T06:21:12;100422.47;;;21.43;36.58
72024;BME280;59889;50.700;5.440;2023-03-20T06:23:37;100425.39;;;21.33;36.69
72024;BME280;59889;50.700;5.440;2023-03-20T06:26:03;100428.32;;;21.33;36.69
72024;BME280;59889;50.700;5.440;2023-03-20T06:28:28;100427.62;;;21.44;36.61
72024;BME280;59889;50.700;5.440;2023-03-20T06:30:53;100423.54;;;21.47;36.54
72024;BME280;59889;50.700;5.440;2023-03-20T06:33:18;100417.66;;;21.27;36.57
72024;BME280;59889;50.700;5.440;2023-03-20T06:35:44;100423.31;;;21.24;36.70
72024;BME280;59889;50.700;5.440;2023-03-20T06:38:08;100422.91;;;21.27;36.69
72024;BME280;59889;50.700;5.440;2023-03-20T06:40:33;100426.32;;;21.53;36.67
72024;BME280;59889;50.700;5.440;2023-03-20T06:42:58;100423.54;;;21.50;36.74
72024;BME280;59889;50.700;5.440;2023-03-20T06:45:23;100423.40;;;21.41;36.93
72024;BME280;59889;50.700;5.440;2023-03-20T06:47:48;100427.91;;;21.43;36.87
72024;BME280;59889;50.700;5.440;2023-03-20T06:50:14;100431.56;;;21.42;36.90
72024;BME280;59889;50.700;5.440;2023-03-20T06:52:39;100435.37;;;21.47;36.83
72024;BME280;59889;50.700;5.440;2023-03-20T06:55:04;100443.36;;;21.45;36.83
72024;BME280;59889;50.700;5.440;2023-03-20T06:57:29;100444.50;;;21.20;36.83
72024;BME280;59889;50.700;5.440;2023-03-20T06:59:54;100449.10;;;21.37;36.94
72024;BME280;59889;50.700;5.440;2023-03-20T07:02:19;100450.19;;;21.44;36.81
72024;BME280;59889;50.700;5.440;2023-03-20T07:04:44;100452.08;;;21.21;36.81
72024;BME280;59889;50.700;5.440;2023-03-20T07:07:09;100458.73;;;21.15;36.87
72024;BME280;59889;50.700;5.440;2023-03-20T07:09:34;100459.46;;;21.40;36.86
72024;BME280;59889;50.700;5.440;2023-03-20T07:11:59;100459.80;;;21.39;36.88
72024;BME280;59889;50.700;5.440;2023-03-20T07:14:24;100462.63;;;21.47;36.76
72024;BME280;59889;50.700;5.440;2023-03-20T07:16:49;100463.28;;;21.43;36.79
72024;BME280;59889;50.700;5.440;2023-03-20T07:19:14;100462.52;;;21.47;36.72
72024;BME280;59889;50.700;5.440;2023-03-20T07:21:40;100460.77;;;21.46;36.73
72024;BME280;59889;50.700;5.440;2023-03-20T07:24:05;100461.48;;;21.04;36.95
72024;BME280;59889;50.700;5.440;2023-03-20T07:26:30;100462.61;;;21.42;36.76
72024;BME280;59889;50.700;5.440;2023-03-20T07:28:55;100463.55;;;21.45;36.72
72024;BME280;59889;50.700;5.440;2023-03-20T07:31:22;100461.99;;;21.42;36.75
72024;BME280;59889;50.700;5.440;2023-03-20T07:33:45;100461.34;;;21.43;36.73
72024;BME280;59889;50.700;5.440;2023-03-20T07:36:10;100465.62;;;21.41;36.75
72024;BME280;59889;50.700;5.440;2023-03-20T07:38:35;100465.03;;;21.39;36.77
72024;BME280;59889;50.700;5.440;2023-03-20T07:41:00;100469.17;;;21.46;36.66
72024;BME280;59889;50.700;5.440;2023-03-20T07:43:25;100475.47;;;21.40;36.74
72024;BME280;59889;50.700;5.440;2023-03-20T07:45:50;100477.06;;;21.41;36.72
72024;BME280;59889;50.700;5.440;2023-03-20T07:48:15;100476.74;;;21.36;36.78
72024;BME280;59889;50.700;5.440;2023-03-20T07:50:40;100483.30;;;21.20;36.66
72024;BME280;59889;50.700;5.440;2023-03-20T07:53:06;100484.80;;;21.17;36.68
72024;BME280;59889;50.700;5.440;2023-03-20T07:55:31;100487.34;;;21.42;36.60
72024;BME280;59889;50.700;5.440;2023-03-20T07:57:56;100488.64;;;21.38;36.64
72024;BME280;59889;50.700;5.440;2023-03-20T08:00:21;100493.32;;;21.39;36.61
72024;BME280;59889;50.700;5.440;2023-03-20T08:02:46;100493.41;;;21.41;36.59
72024;BME280;59889;50.700;5.440;2023-03-20T08:05:11;100490.45;;;21.33;36.66
72024;BME280;59889;50.700;5.440;2023-03-20T08:07:36;100493.33;;;21.14;36.58
72024;BME280;59889;50.700;5.440;2023-03-20T08:10:02;100495.79;;;21.36;36.57
72024;BME280;59889;50.700;5.440;2023-03-20T08:12:26;100499.86;;;21.02;36.71
72024;BME280;59889;50.700;5.440;2023-03-20T08:14:51;100501.61;;;21.06;36.61
72024;BME280;59889;50.700;5.440;2023-03-20T08:17:17;100500.44;;;21.29;36.58
72024;BME280;59889;50.700;5.440;2023-03-20T08:19:42;100498.34;;;21.12;36.45
72024;BME280;59889;50.700;5.440;2023-03-20T08:22:07;100505.72;;;21.16;36.35
72024;BME280;59889;50.700;5.440;2023-03-20T08:24:32;100500.82;;;21.25;36.50
72024;BME280;59889;50.700;5.440;2023-03-20T08:26:57;100504.04;;;21.28;36.48
72024;BME280;59889;50.700;5.440;2023-03-20T08:29:22;100505.25;;;21.24;36.54
72024;BME280;59889;50.700;5.440;2023-03-20T08:31:47;100505.44;;;21.25;36.51
72024;BME280;59889;50.700;5.440;2023-03-20T08:34:13;100506.82;;;21.27;36.44
72024;BME280;59889;50.700;5.440;2023-03-20T08:36:38;100508.57;;;21.26;36.42
72024;BME280;59889;50.700;5.440;2023-03-20T08:39:04;100509.56;;;21.23;36.45
72024;BME280;59889;50.700;5.440;2023-03-20T08:41:28;100510.57;;;21.17;36.46
72024;BME280;59889;50.700;5.440;2023-03-20T08:43:53;100510.23;;;21.23;36.37
72024;BME280;59889;50.700;5.440;2023-03-20T08:46:19;100512.21;;;21.28;36.32
72024;BME280;59889;50.700;5.440;2023-03-20T08:48:44;100514.46;;;21.07;36.25
72024;BME280;59889;50.700;5.440;2023-03-20T08:51:09;100508.86;;;21.06;36.23
72024;BME280;59889;50.700;5.440;2023-03-20T08:53:34;100509.42;;;21.23;36.30
72024;BME280;59889;50.700;5.440;2023-03-20T08:55:59;100508.32;;;21.17;36.38
72024;BME280;59889;50.700;5.440;2023-03-20T08:58:24;100511.72;;;20.96;36.28
72024;BME280;59889;50.700;5.440;2023-03-20T09:00:49;100511.83;;;21.21;36.25
72024;BME280;59889;50.700;5.440;2023-03-20T09:03:16;100511.12;;;21.23;36.22
72024;BME280;59889;50.700;5.440;2023-03-20T09:05:39;100511.49;;;21.24;36.16
72024;BME280;59889;50.700;5.440;2023-03-20T09:08:04;100512.43;;;21.23;36.16
72024;BME280;59889;50.700;5.440;2023-03-20T09:10:29;100509.28;;;21.03;36.14
72024;BME280;59889;50.700;5.440;2023-03-20T09:12:54;100517.31;;;21.24;36.16
72024;BME280;59889;50.700;5.440;2023-03-20T09:15:20;100517.40;;;21.18;36.16
72024;BME280;59889;50.700;5.440;2023-03-20T09:17:45;100515.93;;;21.23;36.03
72024;BME280;59889;50.700;5.440;2023-03-20T09:20:10;100517.57;;;20.93;36.00
72024;BME280;59889;50.700;5.440;2023-03-20T09:22:35;100517.97;;;21.17;35.97
72024;BME280;59889;50.700;5.440;2023-03-20T09:25:00;100519.27;;;20.76;36.21
72024;BME280;59889;50.700;5.440;2023-03-20T09:27:25;100522.63;;;21.25;35.92
72024;BME280;59889;50.700;5.440;2023-03-20T09:29:50;100524.75;;;21.17;35.97
72024;BME280;59889;50.700;5.440;2023-03-20T09:32:15;100524.10;;;21.26;35.85
72024;BME280;59889;50.700;5.440;2023-03-20T09:34:41;100523.01;;;21.18;35.93
72024;BME280;59889;50.700;5.440;2023-03-20T09:37:05;100527.96;;;21.11;35.97
72024;BME280;59889;50.700;5.440;2023-03-20T09:39:30;100531.63;;;21.17;35.89
72024;BME280;59889;50.700;5.440;2023-03-20T09:42:00;100535.25;;;21.03;36.06
72024;BME280;59889;50.700;5.440;2023-03-20T09:44:32;100537.48;;;21.05;35.97
72024;BME280;59889;50.700;5.440;2023-03-20T09:46:56;100543.33;;;21.21;35.66
72024;BME280;59889;50.700;5.440;2023-03-20T09:49:18;100546.98;;;21.14;35.69
72024;BME280;59889;50.700;5.440;2023-03-20T09:51:39;100553.17;;;20.91;35.58
72024;BME280;59889;50.700;5.440;2023-03-20T09:54:06;100550.30;;;21.09;35.58
72024;BME280;59889;50.700;5.440;2023-03-20T09:56:29;100550.09;;;21.11;35.58
72024;BME280;59889;50.700;5.440;2023-03-20T09:58:54;100551.94;;;20.97;35.66
72024;BME280;59889;50.700;5.440;2023-03-20T10:01:17;100553.19;;;21.32;35.47
72024;BME280;59889;50.700;5.440;2023-03-20T10:03:46;100552.98;;;20.99;35.52
72024;BME280;59889;50.700;5.440;2023-03-20T10:06:12;100554.50;;;21.30;35.46
72024;BME280;59889;50.700;5.440;2023-03-20T10:08:34;100555.09;;;21.05;35.44
72024;BME280;59889;50.700;5.440;2023-03-20T10:11:05;100554.72;;;21.19;35.50
72024;BME280;59889;50.700;5.440;2023-03-20T10:13:34;100555.98;;;21.05;35.38
72024;BME280;59889;50.700;5.440;2023-03-20T10:15:52;100550.40;;;21.03;35.44
72024;BME280;59889;50.700;5.440;2023-03-20T10:18:17;100547.43;;;21.09;35.37
72024;BME280;59889;50.700;5.440;2023-03-20T10:20:41;100545.51;;;21.06;35.49
72024;BME280;59889;50.700;5.440;2023-03-20T10:23:05;100540.73;;;21.10;35.48
72024;BME280;59889;50.700;5.440;2023-03-20T10:25:31;100541.32;;;21.15;35.46
72024;BME280;59889;50.700;5.440;2023-03-20T10:27:58;100537.86;;;21.39;35.48
72024;BME280;59889;50.700;5.440;2023-03-20T10:30:28;100534.35;;;21.06;35.59
72024;BME280;59889;50.700;5.440;2023-03-20T10:32:48;100534.43;;;21.11;35.54
72024;BME280;59889;50.700;5.440;2023-03-20T10:35:19;100534.91;;;21.08;35.57
72024;BME280;59889;50.700;5.440;2023-03-20T10:37:42;100527.98;;;21.33;35.52
72024;BME280;59889;50.700;5.440;2023-03-20T10:40:08;100529.48;;;21.08;35.55
72024;BME280;59889;50.700;5.440;2023-03-20T10:42:27;100526.16;;;21.09;35.58
72024;BME280;59889;50.700;5.440;2023-03-20T10:44:52;100527.71;;;20.86;35.59
72024;BME280;59889;50.700;5.440;2023-03-20T10:47:16;100525.57;;;21.07;35.61
72024;BME280;59889;50.700;5.440;2023-03-20T10:49:41;100521.95;;;21.10;35.59
72024;BME280;59889;50.700;5.440;2023-03-20T10:52:06;100522.50;;;21.03;35.71
72024;BME280;59889;50.700;5.440;2023-03-20T10:54:30;100521.43;;;21.00;35.74
72024;BME280;59889;50.700;5.440;2023-03-20T10:56:56;100514.14;;;21.07;35.67
72024;BME280;59889;50.700;5.440;2023-03-20T10:59:22;100511.44;;;21.04;35.72
72024;BME280;59889;50.700;5.440;2023-03-20T11:01:44;100514.39;;;21.00;35.78
72024;BME280;59889;50.700;5.440;2023-03-20T11:04:09;100508.54;;;20.82;35.69
72024;BME280;59889;50.700;5.440;2023-03-20T11:06:39;100503.02;;;21.03;35.72
72024;BME280;59889;50.700;5.440;2023-03-20T11:09:09;100500.30;;;21.00;35.76
72024;BME280;59889;50.700;5.440;2023-03-20T11:11:26;100498.11;;;20.89;35.93
72024;BME280;59889;50.700;5.440;2023-03-20T11:13:49;100495.18;;;21.03;35.72
72024;BME280;59889;50.700;5.440;2023-03-20T11:16:20;100490.74;;;21.26;35.72
72024;BME280;59889;50.700;5.440;2023-03-20T11:18:40;100487.80;;;20.87;35.92
72024;BME280;59889;50.700;5.440;2023-03-20T11:21:11;100484.97;;;21.01;35.76
72024;BME280;59889;50.700;5.440;2023-03-20T11:23:32;100478.86;;;21.05;35.69
72024;BME280;59889;50.700;5.440;2023-03-20T11:25:57;100477.35;;;21.08;35.66
72024;BME280;59889;50.700;5.440;2023-03-20T11:28:24;100471.62;;;21.04;35.72
72024;BME280;59889;50.700;5.440;2023-03-20T11:30:45;100470.98;;;21.03;35.71
72024;BME280;59889;50.700;5.440;2023-03-20T11:33:10;100471.85;;;21.05;35.68
72024;BME280;59889;50.700;5.440;2023-03-20T11:35:35;100463.53;;;21.08;35.63
72024;BME280;59889;50.700;5.440;2023-03-20T11:38:09;100457.75;;;21.03;35.68
72024;BME280;59889;50.700;5.440;2023-03-20T11:40:30;100455.81;;;21.06;35.63
72024;BME280;59889;50.700;5.440;2023-03-20T11:42:51;100452.51;;;21.40;35.52
72024;BME280;59889;50.700;5.440;2023-03-20T11:45:16;100448.03;;;21.05;35.65
72024;BME280;59889;50.700;5.440;2023-03-20T11:47:40;100445.20;;;21.06;35.61
72024;BME280;59889;50.700;5.440;2023-03-20T11:52:32;100432.06;;;21.16;35.48
72024;BME280;59889;50.700;5.440;2023-03-20T11:54:57;100434.10;;;21.17;35.47
72024;BME280;59889;50.700;5.440;2023-03-20T11:57:30;100432.98;;;21.14;35.51
72024;BME280;59889;50.700;5.440;2023-03-20T11:59:46;100423.94;;;21.12;35.51
72024;BME280;59889;50.700;5.440;2023-03-20T12:02:18;100419.94;;;21.36;35.52
72024;BME280;59889;50.700;5.440;2023-03-20T12:04:36;100414.53;;;21.16;35.45
72024;BME280;59889;50.700;5.440;2023-03-20T12:07:03;100419.05;;;21.14;35.48
72024;BME280;59889;50.700;5.440;2023-03-20T12:09:34;100416.17;;;21.10;35.53
72024;BME280;59889;50.700;5.440;2023-03-20T12:11:55;100414.67;;;21.09;35.53
72024;BME280;59889;50.700;5.440;2023-03-20T12:14:23;100420.14;;;21.06;35.58
72024;BME280;59889;50.700;5.440;2023-03-20T12:16:43;100422.81;;;21.18;35.41
72024;BME280;59889;50.700;5.440;2023-03-20T12:19:11;100418.80;;;21.13;35.48
72024;BME280;59889;50.700;5.440;2023-03-20T12:21:37;100420.23;;;21.17;35.42
72024;BME280;59889;50.700;5.440;2023-03-20T12:24:00;100420.99;;;21.39;35.43
72024;BME280;59889;50.700;5.440;2023-03-20T12:26:26;100421.64;;;21.09;35.51
72024;BME280;59889;50.700;5.440;2023-03-20T12:28:52;100418.86;;;21.13;35.46
72024;BME280;59889;50.700;5.440;2023-03-20T12:31:21;100414.18;;;21.34;35.46
72024;BME280;59889;50.700;5.440;2023-03-20T12:33:42;100415.27;;;21.07;35.50
72024;BME280;59889;50.700;5.440;2023-03-20T12:36:04;100412.75;;;21.01;35.57
72024;BME280;59889;50.700;5.440;2023-03-20T12:38:30;100409.43;;;21.08;35.46
72024;BME280;59889;50.700;5.440;2023-03-20T12:40:56;100409.01;;;21.03;35.50
72024;BME280;59889;50.700;5.440;2023-03-20T12:43:23;100407.44;;;21.13;35.39
72024;BME280;59889;50.700;5.440;2023-03-20T12:45:48;100406.66;;;21.06;35.49
72024;BME280;59889;50.700;5.440;2023-03-20T12:48:23;100404.09;;;21.07;35.46
72024;BME280;59889;50.700;5.440;2023-03-20T12:50:35;100399.06;;;21.24;35.54
72024;BME280;59889;50.700;5.440;2023-03-20T12:53:08;100395.52;;;21.00;35.54